Latest Weather Observations for Troughton Island

IDW60801

Issued at 6:34 pm WST Sunday 25 June 2017 (issued every 30 minutes, with the page automatically refreshed every 10 minutes)

About weather observations | Map of weather stations | Latest weather observations for WA | Other Formats
Station Details ID: 001007 Name: TROUGHTON ISLAND Lat: -13.75 Lon: 126.15 Height: 6.0 m
Data from the previous 72 hours. | See also: Recent months at Troughton Island
Date/Time
WST
Temp
°C
App
Temp
°C
Dew
Point
°C
Rel
Hum
%
Delta-T
°C
Wind Press
QNH
hPa
Press
MSL
hPa
Rain since
9am
mm
Dir  Spd
km/h
Gust
km/h
Spd
kts
Gust
kts
25/06:30pm 25.3 26.9 20.8 76 3.0 NNE 13 17 7 9 1012.6 1012.5 0.0
25/06:00pm 25.4 27.1 20.9 76 3.0 NNE 13 15 7 8 1012.3 1012.2 0.0
25/05:30pm 25.7 27.1 20.3 72 3.5 NNE 13 15 7 8 1012.0 1011.9 0.0
25/05:00pm 25.5 27.5 21.6 79 2.6 N 13 15 7 8 1011.9 1011.8 0.0
25/04:30pm 25.8 27.6 21.2 76 3.0 N 13 17 7 9 1011.8 1011.7 0.0
25/04:00pm 25.9 28.2 21.3 76 3.0 N 11 15 6 8 1011.7 1011.6 0.0
25/03:30pm 26.5 28.9 21.5 74 3.3 N 11 15 6 8 1011.7 1011.6 0.0
25/03:00pm 27.1 29.6 21.8 73 3.5 N 11 15 6 8 1011.7 1011.6 0.0
25/02:30pm 27.3 29.8 21.8 72 3.7 NNW 11 13 6 7 1011.9 1011.8 0.0
25/02:00pm 27.8 30.8 21.3 67 4.3 NNE 7 11 4 6 1011.9 1011.8 0.0
25/01:30pm 27.0 29.3 19.9 65 4.6 NNE 7 11 4 6 1012.1 1012.0 0.0
25/01:00pm 27.3 30.1 21.6 71 3.8 NNE 9 13 5 7 1012.5 1012.4 0.0
25/12:30pm 27.1 29.7 21.2 70 3.9 NE 9 13 5 7 1012.8 1012.7 0.0
25/12:00pm 27.2 29.3 21.0 69 4.1 NE 11 13 6 7 1013.3 1013.2 0.0
25/11:30am 27.7 30.7 22.0 71 3.8 ENE 9 11 5 6 1013.7 1013.6 0.0
25/11:00am 27.0 29.3 21.3 71 3.8 E 11 13 6 7 1014.2 1014.1 0.0
25/10:30am 27.0 29.4 21.5 72 3.7 ESE 11 15 6 8 1014.5 1014.4 0.0
25/10:00am 26.6 29.1 21.8 75 3.2 SE 11 15 6 8 1014.7 1014.6 0.0
25/09:30am 26.1 28.4 22.0 78 2.7 SSE 13 15 7 8 1014.9 1014.8 0.0
25/09:00am 25.7 28.0 22.0 80 2.5 SE 13 15 7 8 1014.9 1014.8 0.0
25/08:30am 25.5 28.0 21.8 80 2.5 SE 11 15 6 8 1014.7 1014.6 0.0
25/08:00am 25.1 27.7 22.0 83 2.1 SSE 11 13 6 7 1014.5 1014.4 0.0
25/07:30am 24.4 27.5 22.1 87 1.5 S 9 11 5 6 1014.3 1014.2 0.0
25/07:00am 24.0 26.9 22.4 91 1.1 S 11 13 6 7 1014.0 1013.9 0.0
25/06:30am 23.5 26.5 21.9 91 1.1 SSW 9 11 5 6 1013.7 1013.6 0.0
25/06:00am 23.3 26.2 21.7 91 1.1 SSW 9 11 5 6 1013.2 1013.1 0.0
25/05:30am 23.5 25.8 22.1 92 0.9 SSW 13 15 7 8 1012.9 1012.8 0.0
25/05:00am 23.6 26.0 22.2 92 0.9 SSW 13 13 7 7 1012.6 1012.5 0.0
25/04:30am 23.7 26.1 22.3 92 0.9 SSW 13 15 7 8 1012.6 1012.5 0.0
25/04:00am 23.8 26.7 22.4 92 0.9 SW 11 13 6 7 1012.6 1012.5 0.0
25/03:30am 23.8 27.5 22.6 93 0.8 SW 7 11 4 6 1012.5 1012.4 0.0
25/03:00am 23.6 27.7 22.2 92 0.9 WSW 4 7 2 4 1012.5 1012.4 0.0
25/02:30am 23.6 28.4 22.2 92 0.9 CALM 0 0 0 0 1012.7 1012.6 0.0
25/02:00am 23.1 27.6 21.5 91 1.1 CALM 0 0 0 0 1012.7 1012.6 0.0
25/01:30am 23.8 27.5 22.2 91 1.1 SE 6 7 3 4 1012.7 1012.6 0.0
25/01:00am 24.0 27.2 22.4 91 1.1 ESE 9 11 5 6 1013.0 1012.9 0.0
25/12:30am 24.0 27.2 22.3 90 1.1 SE 9 9 5 5 1013.2 1013.1 0.0
25/12:00am 24.5 27.2 22.8 90 1.1 E 13 15 7 8 1013.2 1013.1 0.0
 
Date/Time
WST
Temp
°C
App
Temp
°C
Dew
Point
°C
Rel
Hum
%
Delta-T
°C
Wind Press
QNH
hPa
Press
MSL
hPa
Rain since
9am
mm
Dir  Spd
km/h
Gust
km/h
Spd
kts
Gust
kts
24/11:30pm 24.6 27.7 22.8 90 1.2 E 11 15 6 8 1013.2 1013.1 0.0
24/11:00pm 24.7 27.4 22.9 90 1.2 ESE 13 17 7 9 1013.3 1013.2 0.0
24/10:30pm 24.8 27.6 23.0 90 1.2 E 13 17 7 9 1013.3 1013.2 0.0
24/10:00pm 24.7 27.0 22.8 89 1.3 ESE 15 17 8 9 1013.4 1013.3 0.0
24/09:30pm 24.9 26.9 23.0 89 1.3 E 17 19 9 10 1013.3 1013.2 0.0
24/09:00pm 25.0 27.4 22.9 88 1.4 E 15 17 8 9 1013.4 1013.3 0.0
24/08:30pm 25.2 27.2 22.9 87 1.6 ENE 17 19 9 10 1013.1 1013.0 0.0
24/08:00pm 25.2 26.8 22.9 87 1.6 ENE 19 20 10 11 1012.7 1012.6 0.0
24/07:30pm 25.4 26.8 22.9 86 1.7 ENE 20 22 11 12 1012.2 1012.1 0.0
24/07:00pm 25.5 27.0 23.0 86 1.7 NE 20 24 11 13 1012.0 1011.9 0.0
24/06:30pm 25.5 27.8 22.8 85 1.8 NE 15 19 8 10 1011.6 1011.5 0.0
24/06:00pm 25.6 27.7 22.5 83 2.1 NE 15 19 8 10 1011.3 1011.2 0.0
24/05:30pm 25.9 27.4 22.0 79 2.6 NE 17 20 9 11 1011.1 1011.0 0.0
24/05:00pm 26.6 27.5 20.9 71 3.8 NNE 17 20 9 11 1010.9 1010.8 0.0
24/04:30pm 27.1 28.0 20.0 65 4.6 NNE 15 19 8 10 1010.7 1010.6 0.0
24/04:00pm 27.3 28.5 19.9 64 4.8 NNE 13 17 7 9 1010.6 1010.5 0.0
24/03:30pm 27.1 28.1 19.4 62 5.0 NNE 13 19 7 10 1010.5 1010.4 0.0
24/03:00pm 28.6 29.8 19.0 56 6.2 NNE 11 15 6 8 1010.6 1010.5 0.0
24/02:30pm 28.4 30.1 18.5 55 6.3 ENE 7 11 4 6 1010.7 1010.6 0.0
24/02:00pm 29.0 29.9 17.5 49 7.3 ENE 9 11 5 6 1010.7 1010.6 0.0
24/01:30pm 28.6 28.7 15.5 45 8.0 E 9 11 5 6 1010.9 1010.8 0.0
24/01:00pm 29.0 29.4 15.2 43 8.4 E 7 11 4 6 1011.5 1011.4 0.0
24/12:30pm 28.3 29.2 17.5 52 6.8 ENE 9 11 5 6 1011.9 1011.8 0.0
24/12:00pm 28.2 29.2 17.7 53 6.6 ENE 9 11 5 6 1012.3 1012.2 0.0
24/11:30am 28.4 29.6 18.2 54 6.5 E 9 11 5 6 1013.0 1012.9 0.0
24/11:00am 28.0 28.8 17.2 52 6.8 E 9 11 5 6 1013.5 1013.4 0.0
24/10:30am 27.8 28.4 16.7 50 6.9 SE 9 13 5 7 1013.8 1013.7 0.0
24/10:00am 27.7 28.3 17.8 54 6.3 SE 11 15 6 8 1014.1 1014.0 0.0
24/09:30am 27.4 27.8 18.1 57 5.9 SE 13 15 7 8 1014.1 1014.0 0.0
24/09:00am 26.8 26.9 18.4 60 5.3 SE 15 19 8 10 1014.1 1014.0 0.0
24/08:30am 26.0 26.4 18.9 65 4.5 SSE 15 17 8 9 1014.1 1014.0 0.0
24/08:00am 25.9 27.1 19.8 69 4.0 SSE 13 17 7 9 1014.0 1013.9 0.0
24/07:30am 25.4 26.4 19.5 70 3.8 SSE 13 17 7 9 1013.5 1013.4 0.0
24/07:00am 24.4 26.0 19.9 76 2.9 SSE 11 13 6 7 1013.1 1013.0 0.0
24/06:30am 23.0 24.4 19.6 81 2.2 SSE 11 13 6 7 1012.8 1012.7 0.0
24/06:00am 22.3 23.7 18.7 80 2.3 SE 9 11 5 6 1012.5 1012.4 0.0
24/05:30am 22.4 23.7 19.4 83 1.9 SSE 11 13 6 7 1012.2 1012.1 0.0
24/05:00am 22.6 24.2 19.9 85 1.7 SSE 11 13 6 7 1012.1 1012.0 0.0
24/04:30am 23.1 24.7 20.8 87 1.5 SSE 13 13 7 7 1012.1 1012.0 0.0
24/04:00am 22.8 24.9 20.1 85 1.7 SE 9 11 5 6 1012.0 1011.9 0.0
24/03:30am 22.7 24.7 20.0 85 1.7 SE 9 11 5 6 1012.0 1011.9 0.0
24/03:00am 23.1 25.3 20.4 85 1.8 ESE 9 11 5 6 1012.0 1011.9 0.0
24/02:30am 23.2 25.5 20.7 86 1.6 ESE 9 11 5 6 1012.2 1012.1 0.0
24/02:00am 23.0 25.8 20.9 88 1.4 SE 7 9 4 5 1012.5 1012.4 0.0
24/01:30am 23.3 25.9 21.2 88 1.4 S 9 11 5 6 1012.8 1012.7 0.0
24/01:00am 23.6 26.3 21.3 87 1.5 SE 9 11 5 6 1012.9 1012.8 0.0
24/12:30am 24.4 27.1 22.1 87 1.5 E 11 11 6 6 1013.1 1013.0 0.0
24/12:00am 24.4 27.4 21.9 86 1.7 ESE 9 11 5 6 1013.3 1013.2 0.0
 
Date/Time
WST
Temp
°C
App
Temp
°C
Dew
Point
°C
Rel
Hum
%
Delta-T
°C
Wind Press
QNH
hPa
Press
MSL
hPa
Rain since
9am
mm
Dir  Spd
km/h
Gust
km/h
Spd
kts
Gust
kts
23/11:30pm 24.5 27.0 21.8 85 1.8 ESE 11 13 6 7 1013.3 1013.2 0.0
23/11:00pm 24.6 27.1 21.7 84 1.9 ESE 11 13 6 7 1013.5 1013.4 0.0
23/10:30pm 24.7 27.0 21.4 82 2.2 E 11 13 6 7 1013.7 1013.6 0.0
23/10:00pm 24.9 27.1 21.2 80 2.4 E 11 11 6 6 1013.9 1013.8 0.0
23/09:30pm 25.1 27.0 21.4 80 2.4 ENE 13 15 7 8 1013.8 1013.7 0.0
23/09:00pm 25.2 27.0 21.9 82 2.2 ENE 15 17 8 9 1013.8 1013.7 0.0
23/08:30pm 25.1 27.1 21.6 81 2.3 ENE 13 15 7 8 1013.5 1013.4 0.0
23/08:00pm 25.2 27.1 21.3 79 2.6 ENE 13 15 7 8 1013.3 1013.2 0.0
23/07:30pm 25.2 26.9 20.9 77 2.8 NE 13 13 7 7 1013.1 1013.0 0.0
23/07:00pm 25.2 26.7 19.8 72 3.5 NE 11 13 6 7 1012.9 1012.8 0.0
23/06:30pm 25.3 26.6 19.2 69 3.9 NE 11 13 6 7 1012.5 1012.4 0.0
23/06:00pm 25.6 27.4 19.5 69 3.9 NE 9 11 5 6 1012.3 1012.2 0.0
23/05:30pm 25.9 27.4 18.8 65 4.5 NE 9 13 5 7 1012.1 1012.0 0.0
23/05:00pm 26.7 27.3 16.9 55 6.1 NE 9 13 5 7 1011.8 1011.7 0.0
23/04:30pm 27.5 27.7 14.8 45 7.7 N 7 11 4 6 1011.7 1011.6 0.0
23/04:00pm 28.2 28.2 14.1 42 8.4 N 7 11 4 6 1011.6 1011.5 0.0
23/03:30pm 28.1 29.2 17.9 54 6.5 W 9 13 5 7 1011.4 1011.3 0.0
23/03:00pm 28.1 29.4 19.3 58 5.7 W 11 13 6 7 1011.4 1011.3 0.0
23/02:30pm 27.6 28.8 19.1 59 5.5 W 11 13 6 7 1011.8 1011.7 0.0
23/02:00pm 28.0 29.6 20.8 65 4.8 W 13 15 7 8 1012.0 1011.9 0.0
23/01:30pm 27.8 29.3 19.8 61 5.2 W 11 11 6 6 1012.3 1012.2 0.0
23/01:00pm 28.1 29.9 19.6 60 5.5 W 9 13 5 7 1012.8 1012.7 0.0
23/12:30pm 28.1 29.0 19.3 58 5.7 WSW 13 15 7 8 1013.3 1013.2 0.0
23/12:00pm 28.6 29.1 16.5 48 7.5 SW 9 11 5 6 1013.7 1013.6 0.0
23/11:30am 28.1 28.4 16.1 48 7.4 SW 9 11 5 6 1014.2 1014.1 0.0
23/11:00am 28.0 28.0 16.3 49 7.2 SSW 11 13 6 7 1014.7 1014.6 0.0
23/10:30am 27.4 26.9 14.8 46 7.6 SSW 11 13 6 7 1015.2 1015.1 0.0
23/10:00am 27.7 27.2 15.0 45 7.7 S 11 15 6 8 1015.7 1015.6 0.0
23/09:30am 26.9 25.2 13.6 44 7.9 SSE 15 19 8 10 1016.0 1015.9 0.0
23/09:00am 26.4 25.0 14.5 48 7.1 S 15 17 8 9 1016.0 1015.9 0.0
23/08:30am 26.7 25.1 15.1 49 7.0 S 17 19 9 10 1016.0 1015.9 0.0
23/08:00am 26.0 25.3 15.4 52 6.4 S 13 15 7 8 1015.8 1015.7 0.0
23/07:30am 25.0 25.1 16.4 59 5.3 S 11 13 6 7 1015.4 1015.3 0.0
23/07:00am 24.3 24.6 17.8 67 4.1 S 13 17 7 9 1015.0 1014.9 0.0
23/06:30am 23.1 23.4 17.1 69 3.7 SSE 11 15 6 8 1014.6 1014.5 0.0
23/06:00am 22.4 22.8 17.3 73 3.1 SSE 11 13 6 7 1014.2 1014.1 0.0
23/05:30am 22.6 23.3 17.9 75 2.9 SSE 11 13 6 7 1014.0 1013.9 0.0
23/05:00am 23.0 23.3 17.9 73 3.2 SSE 13 17 7 9 1014.0 1013.9 0.0
23/04:30am 22.6 23.1 18.4 77 2.6 SSE 13 15 7 8 1013.8 1013.7 0.0
23/04:00am 22.6 23.7 19.6 83 1.9 SSE 13 15 7 8 1013.7 1013.6 0.0
23/03:30am 22.8 24.2 20.3 86 1.6 SE 13 13 7 7 1013.8 1013.7 0.0
23/03:00am 23.1 25.2 21.0 88 1.4 ESE 11 13 6 7 1013.9 1013.8 0.0
23/02:30am 23.2 25.4 21.1 88 1.4 SE 11 13 6 7 1013.9 1013.8 0.0
23/02:00am 23.3 25.9 21.2 88 1.4 SE 9 11 5 6 1014.1 1014.0 0.0
23/01:30am 23.7 25.9 21.2 86 1.6 SE 11 11 6 6 1014.3 1014.2 0.0
23/01:00am 24.3 26.7 21.6 85 1.8 ESE 11 13 6 7 1014.6 1014.5 0.0
23/12:30am 24.5 26.8 21.4 83 2.0 ESE 11 13 6 7 1014.9 1014.8 0.0
23/12:00am 24.8 27.2 21.5 82 2.2 E 11 15 6 8 1015.2 1015.1 0.0
 
Date/Time
WST
Temp
°C
App
Temp
°C
Dew
Point
°C
Rel
Hum
%
Delta-T
°C
Wind Press
QNH
hPa
Press
MSL
hPa
Rain since
9am
mm
Dir  Spd
km/h
Gust
km/h
Spd
kts
Gust
kts
22/11:30pm 25.3 26.9 21.4 79 2.6 ENE 15 17 8 9 1015.3 1015.2 0.0
22/11:00pm 25.2 26.3 21.3 79 2.6 ENE 17 19 9 10 1015.4 1015.3 0.0
22/10:30pm 25.2 26.3 21.3 79 2.6 ENE 17 20 9 11 1015.6 1015.5 0.0
22/10:00pm 25.3 26.3 21.0 77 2.8 NE 17 20 9 11 1015.6 1015.5 0.0
22/09:30pm 25.5 25.9 20.7 75 3.1 NE 19 22 10 12 1015.8 1015.7 0.0
22/09:00pm 25.5 25.7 20.5 74 3.3 NE 20 24 11 13 1015.8 1015.7 0.0
22/08:30pm 25.5 25.8 20.7 75 3.1 NE 20 26 11 14 1015.7 1015.6 0.0
22/08:00pm 25.5 25.8 20.7 75 3.1 NE 20 26 11 14 1015.4 1015.3 0.0
22/07:30pm 25.3 25.6 20.8 76 3.0 NE 20 26 11 14 1015.2 1015.1 0.0
22/07:00pm 25.3 25.1 20.5 75 3.1 ENE 22 26 12 14 1015.0 1014.9 0.0

Other Formats:

Comma delimited format used in spreadsheet applications
http://www.bom.gov.au/fwo/IDW60801/IDW60801.94102.axf

JavaScript Object Notation format (JSON) in row-major order
http://www.bom.gov.au/fwo/IDW60801/IDW60801.94102.json